Time;durP1;ratioP1;P1;durP2;ratioP2;P2;SDS_P1;SDS_P2;PMS_P1;PMS_P2;Temp;Humidity;BMP_temperature;BMP_pressure;BME280_temperature;BME280_humidity;BME280_pressure;Samples;Min_cycle;Max_cycle;Signal;HPM_P1;HPM_P2
2021/11/30 00:04:48;;;;;;;9.53;7.10;;;5.70;99.90;;;;;;10406106;28;20223;-83
2021/11/30 00:15:12;;;;;;;10.10;6.63;;;5.70;99.90;;;;;;10415735;28;20261;-83
2021/11/30 00:20:14;;;;;;;7.40;6.80;;;5.70;99.90;;;;;;10392049;28;20214;-83
2021/11/30 00:25:16;;;;;;;7.03;6.33;;;5.70;99.90;;;;;;10383256;28;20253;-83
2021/11/30 00:30:21;;;;;;;6.30;5.90;;;5.60;99.90;;;;;;10420617;28;20228;-83
2021/11/30 00:35:23;;;;;;;7.67;7.07;;;5.60;99.90;;;;;;10407612;28;20270;-83
2021/11/30 00:40:26;;;;;;;7.20;6.60;;;5.60;99.90;;;;;;10390990;28;20214;-82
2021/11/30 00:45:37;;;;;;;6.10;5.70;;;5.50;99.90;;;;;;10401433;28;20317;-83
2021/11/30 00:50:43;;;;;;;7.17;6.57;;;5.40;99.90;;;;;;10391881;28;20266;-84
2021/11/30 00:55:45;;;;;;;7.10;6.50;;;5.40;99.90;;;;;;10406742;28;20256;-83
2021/11/30 01:00:49;;;;;;;5.70;5.30;;;5.40;99.90;;;;;;10418186;28;20248;-81
2021/11/30 01:05:51;;;;;;;6.00;5.60;;;5.40;99.90;;;;;;10406717;28;20214;-82
2021/11/30 01:10:54;;;;;;;5.53;5.13;;;5.40;99.90;;;;;;10394905;28;20197;-81
2021/11/30 01:15:57;;;;;;;5.60;5.20;;;5.40;99.90;;;;;;10388613;28;20226;-82
2021/11/30 01:21:00;;;;;;;5.40;5.00;;;5.40;99.90;;;;;;10394213;28;20233;-82
2021/11/30 01:26:03;;;;;;;6.00;5.50;;;5.30;99.90;;;;;;10388025;28;20236;-82
2021/11/30 01:31:06;;;;;;;5.90;5.50;;;5.40;99.90;;;;;;10410733;28;20197;-82
2021/11/30 01:36:08;;;;;;;5.30;5.00;;;5.50;99.90;;;;;;10377673;28;20242;-82
2021/11/30 01:41:12;;;;;;;5.50;5.10;;;5.50;99.90;;;;;;10402601;28;20754;-82
2021/11/30 01:46:26;;;;;;;5.40;4.90;;;5.60;99.90;;;;;;10354190;28;20638;-82
2021/11/30 01:51:29;;;;;;;4.90;4.53;;;5.60;99.90;;;;;;10377907;28;20198;-83
2021/11/30 01:56:31;;;;;;;5.47;4.97;;;5.70;99.90;;;;;;10399828;28;20276;-83
2021/11/30 02:01:35;;;;;;;4.00;3.70;;;5.70;99.90;;;;;;10400086;28;20213;-82
2021/11/30 02:06:37;;;;;;;5.50;4.50;;;5.70;99.90;;;;;;10412748;28;20222;-81
2021/11/30 02:11:39;;;;;;;4.93;4.53;;;5.80;99.90;;;;;;10401374;28;20229;-82
2021/11/30 02:16:44;;;;;;;4.93;4.60;;;5.80;99.90;;;;;;10374734;28;20233;-82
2021/11/30 02:21:48;;;;;;;6.60;4.10;;;5.80;99.90;;;;;;10353841;28;20301;-82
2021/11/30 02:26:50;;;;;;;4.97;4.10;;;5.80;99.90;;;;;;10384432;28;20694;-83
2021/11/30 02:31:52;;;;;;;5.10;4.50;;;5.80;99.90;;;;;;10409288;28;20208;-84
2021/11/30 02:37:04;;;;;;;4.47;4.07;;;5.80;99.90;;;;;;10368583;28;20264;-82
2021/11/30 02:42:09;;;;;;;3.93;3.63;;;5.80;99.90;;;;;;10377808;28;20587;-83
2021/11/30 02:47:14;;;;;;;4.77;3.73;;;5.90;99.90;;;;;;10417032;28;20564;-82
2021/11/30 02:52:20;;;;;;;3.30;3.10;;;5.80;99.90;;;;;;10387290;28;20195;-83
2021/11/30 02:57:24;;;;;;;3.90;3.40;;;5.80;99.90;;;;;;10391964;28;20237;-82
2021/11/30 03:02:29;;;;;;;5.20;3.60;;;5.70;99.90;;;;;;10389392;28;20225;-82
2021/11/30 03:07:37;;;;;;;3.50;3.30;;;5.70;99.90;;;;;;10411898;28;20229;-83
2021/11/30 03:12:40;;;;;;;3.30;3.10;;;5.70;99.90;;;;;;10416552;28;20252;-82
2021/11/30 03:17:43;;;;;;;3.60;3.30;;;5.60;99.90;;;;;;10396835;28;20226;-82
2021/11/30 03:22:47;;;;;;;4.53;2.97;;;5.60;99.90;;;;;;10394909;28;20222;-82
2021/11/30 03:27:50;;;;;;;6.10;3.57;;;5.50;99.90;;;;;;10404681;28;20711;-82
2021/11/30 03:38:13;;;;;;;2.87;2.67;;;5.40;99.90;;;;;;10380991;28;20206;-83
2021/11/30 03:43:15;;;;;;;4.33;3.00;;;5.40;99.90;;;;;;10407912;28;20232;-81
2021/11/30 03:48:17;;;;;;;3.93;3.03;;;5.30;99.90;;;;;;10364397;28;20298;-84
2021/11/30 03:53:21;;;;;;;3.50;3.20;;;5.40;99.90;;;;;;10376763;28;20222;-82
2021/11/30 03:58:23;;;;;;;3.43;3.23;;;5.40;99.90;;;;;;10373360;28;20202;-84
2021/11/30 04:03:28;;;;;;;3.10;2.70;;;5.40;99.90;;;;;;10407726;28;20260;-83
2021/11/30 04:08:32;;;;;;;3.13;2.93;;;5.40;99.90;;;;;;10386559;28;20249;-83
2021/11/30 04:13:35;;;;;;;4.37;3.67;;;5.40;99.90;;;;;;10389908;28;20237;-84
2021/11/30 04:18:37;;;;;;;3.10;2.80;;;5.30;99.90;;;;;;10411134;28;20673;-83
2021/11/30 04:23:41;;;;;;;4.00;3.30;;;5.20;99.90;;;;;;10389405;28;20273;-83
2021/11/30 04:28:44;;;;;;;3.67;3.30;;;5.20;99.90;;;;;;10392922;28;20296;-83
2021/11/30 04:33:46;;;;;;;3.27;3.07;;;5.10;99.90;;;;;;10389219;28;20253;-83
2021/11/30 04:38:49;;;;;;;4.40;3.90;;;5.00;99.90;;;;;;10397505;28;20751;-83
2021/11/30 04:43:52;;;;;;;4.00;3.70;;;5.00;99.90;;;;;;10410956;28;20226;-83
2021/11/30 04:48:57;;;;;;;5.17;3.40;;;5.00;99.90;;;;;;10399965;28;20241;-84
2021/11/30 04:54:01;;;;;;;4.07;3.67;;;5.00;99.90;;;;;;10416105;28;20225;-82
2021/11/30 04:59:03;;;;;;;4.70;3.50;;;5.00;99.90;;;;;;10378418;28;20291;-82
2021/11/30 05:04:05;;;;;;;3.83;3.47;;;5.10;99.90;;;;;;10392178;28;20225;-82
2021/11/30 05:09:09;;;;;;;3.30;3.10;;;5.00;99.90;;;;;;10395521;28;20692;-82
2021/11/30 05:14:11;;;;;;;3.77;3.47;;;5.00;99.90;;;;;;10394406;28;20214;-83
2021/11/30 05:19:13;;;;;;;3.70;3.50;;;5.00;99.90;;;;;;10381699;28;20214;-81
2021/11/30 05:24:19;;;;;;;3.50;3.30;;;5.00;99.90;;;;;;10388985;28;20219;-83
2021/11/30 05:29:21;;;;;;;3.70;3.40;;;4.90;99.90;;;;;;10369404;28;20226;-81
2021/11/30 05:34:23;;;;;;;4.00;3.70;;;4.90;99.90;;;;;;10400330;28;20293;-80
2021/11/30 05:39:28;;;;;;;4.83;4.43;;;4.90;99.90;;;;;;10403110;28;20589;-80
2021/11/30 05:44:30;;;;;;;5.23;4.70;;;4.80;99.90;;;;;;10393695;28;20276;-81
2021/11/30 05:49:32;;;;;;;4.57;4.17;;;4.80;99.90;;;;;;10374828;28;20222;-81
2021/11/30 05:54:36;;;;;;;3.60;3.40;;;4.70;99.90;;;;;;10393170;28;20226;-81
2021/11/30 05:59:40;;;;;;;4.67;4.30;;;4.70;99.90;;;;;;10400546;28;20226;-83
2021/11/30 06:04:42;;;;;;;4.70;4.40;;;4.60;99.90;;;;;;10401255;28;20234;-83
2021/11/30 06:09:46;;;;;;;4.63;4.03;;;4.60;99.90;;;;;;10416539;28;20226;-80
2021/11/30 06:14:48;;;;;;;5.43;5.03;;;4.60;99.90;;;;;;10423067;28;20228;-78
2021/11/30 06:19:50;;;;;;;5.30;4.90;;;4.70;99.90;;;;;;10421853;28;20280;-80
2021/11/30 06:24:53;;;;;;;5.37;4.90;;;4.70;99.90;;;;;;10418636;28;20226;-81
2021/11/30 06:29:56;;;;;;;5.60;5.20;;;4.50;99.90;;;;;;10422937;28;20198;-80
2021/11/30 06:34:58;;;;;;;5.93;5.33;;;4.40;99.90;;;;;;10423406;28;20260;-80
2021/11/30 06:40:01;;;;;;;6.07;5.60;;;4.30;99.90;;;;;;10422416;28;20305;-80
2021/11/30 06:45:04;;;;;;;6.80;6.20;;;4.10;99.90;;;;;;10424227;28;20243;-80
2021/11/30 06:50:07;;;;;;;6.57;5.93;;;4.00;99.90;;;;;;10422180;28;20290;-81
2021/11/30 06:55:11;;;;;;;6.73;6.13;;;4.00;99.90;;;;;;10423573;28;20245;-81
2021/11/30 07:00:17;;;;;;;6.23;5.80;;;3.90;99.90;;;;;;10422202;28;20264;-80
2021/11/30 07:05:22;;;;;;;5.97;5.57;;;3.90;99.90;;;;;;10423323;28;20232;-81
2021/11/30 07:10:37;;;;;;;6.23;5.77;;;3.90;99.90;;;;;;10419038;28;20572;-79
2021/11/30 07:15:39;;;;;;;5.50;5.10;;;3.90;99.90;;;;;;10417053;28;20227;-79
2021/11/30 07:20:42;;;;;;;6.90;6.30;;;3.90;99.90;;;;;;10417708;28;20703;-77
2021/11/30 07:25:48;;;;;;;6.03;5.63;;;3.90;99.90;;;;;;10417916;28;20230;-79
2021/11/30 07:30:50;;;;;;;5.70;5.10;;;3.90;99.90;;;;;;10419016;28;20198;-77
2021/11/30 07:35:52;;;;;;;5.67;5.27;;;3.90;99.90;;;;;;10417486;28;20253;-77
2021/11/30 07:40:56;;;;;;;4.47;4.07;;;3.90;99.90;;;;;;10417781;28;20218;-80
2021/11/30 07:45:58;;;;;;;5.57;5.07;;;3.90;99.90;;;;;;10399882;28;20233;-77
2021/11/30 07:51:01;;;;;;;6.00;5.50;;;4.00;99.90;;;;;;10426347;28;20201;-77
2021/11/30 07:56:05;;;;;;;3.90;3.70;;;4.10;99.90;;;;;;10416377;28;20324;-78
2021/11/30 08:01:09;;;;;;;4.67;4.37;;;4.10;99.90;;;;;;10414398;28;20221;-77
2021/11/30 08:06:11;;;;;;;3.67;3.47;;;4.10;99.90;;;;;;10418157;28;20238;-78
2021/11/30 08:11:14;;;;;;;4.77;4.40;;;4.10;99.90;;;;;;10420648;28;20240;-80
2021/11/30 08:16:17;;;;;;;4.83;4.53;;;4.20;99.90;;;;;;10405418;28;20222;-80
2021/11/30 08:21:19;;;;;;;4.60;4.30;;;4.20;99.90;;;;;;10421952;28;20218;-79
2021/11/30 08:26:22;;;;;;;4.83;4.40;;;4.20;99.90;;;;;;10421537;28;20221;-79
2021/11/30 08:31:24;;;;;;;4.77;4.40;;;4.20;99.90;;;;;;10423207;28;20202;-79
2021/11/30 08:36:27;;;;;;;5.27;4.87;;;4.20;99.90;;;;;;10476907;23;20650;-79
2021/11/30 08:41:30;;;;;;;5.30;4.80;;;4.10;99.90;;;;;;10479832;28;20233;-79
2021/11/30 08:46:33;;;;;;;4.63;4.33;;;4.10;99.90;;;;;;10492052;28;20243;-79
2021/11/30 08:51:35;;;;;;;4.53;4.30;;;4.10;99.90;;;;;;10496542;28;20207;-79
2021/11/30 08:56:38;;;;;;;5.63;4.70;;;4.10;99.90;;;;;;10507756;28;20216;-80
2021/11/30 09:01:41;;;;;;;5.27;4.80;;;4.10;99.90;;;;;;10497025;28;20223;-78
2021/11/30 09:06:43;;;;;;;4.50;4.30;;;4.10;99.90;;;;;;10480704;28;20223;-79
2021/11/30 09:11:47;;;;;;;4.97;4.30;;;4.20;99.90;;;;;;10489639;28;20227;-79
2021/11/30 09:16:49;;;;;;;3.63;3.33;;;4.20;99.90;;;;;;10498337;28;20567;-78
2021/11/30 09:21:53;;;;;;;4.20;4.00;;;4.20;99.90;;;;;;10481125;28;20224;-79
2021/11/30 09:26:57;;;;;;;4.40;4.20;;;4.30;99.90;;;;;;10497331;28;20228;-77
2021/11/30 09:31:59;;;;;;;4.20;3.90;;;4.40;99.90;;;;;;10503835;28;20287;-78
2021/11/30 09:37:02;;;;;;;4.03;3.80;;;4.40;99.90;;;;;;10490874;28;20612;-79
2021/11/30 09:42:07;;;;;;;4.23;3.77;;;4.50;99.90;;;;;;10476797;28;20250;-79
2021/11/30 09:47:09;;;;;;;3.40;3.20;;;4.60;99.90;;;;;;10504124;28;20226;-79
2021/11/30 09:52:11;;;;;;;3.30;3.20;;;4.70;99.90;;;;;;10502589;28;20197;-78
2021/11/30 09:57:15;;;;;;;3.47;3.27;;;4.70;99.90;;;;;;10501896;28;20228;-78
2021/11/30 10:02:17;;;;;;;2.93;2.73;;;4.80;99.90;;;;;;10501943;28;20247;-79
2021/11/30 10:07:37;;;;;;;2.63;2.53;;;4.90;99.90;;;;;;10504629;28;20224;-79
2021/11/30 10:12:41;;;;;;;3.30;3.00;;;5.00;99.90;;;;;;10500683;28;20205;-78
2021/11/30 10:17:43;;;;;;;4.30;2.67;;;4.90;99.90;;;;;;10502067;28;20278;-78
2021/11/30 10:22:48;;;;;;;2.77;2.43;;;4.80;99.90;;;;;;10485228;28;20224;-78
2021/11/30 10:27:54;;;;;;;2.00;1.90;;;4.90;99.90;;;;;;10504585;28;20687;-79
2021/11/30 10:32:58;;;;;;;2.27;2.17;;;4.90;99.90;;;;;;10502252;28;20575;-78
2021/11/30 10:38:02;;;;;;;2.30;2.20;;;4.90;99.90;;;;;;10503956;28;20719;-79
2021/11/30 10:43:08;;;;;;;2.40;2.30;;;4.90;99.90;;;;;;10499127;28;20246;-78
2021/11/30 10:48:14;;;;;;;2.77;2.67;;;4.90;99.90;;;;;;10498073;28;20266;-78
2021/11/30 10:53:19;;;;;;;2.10;2.03;;;4.80;99.90;;;;;;10502959;28;20238;-78
2021/11/30 10:58:24;;;;;;;2.27;2.17;;;4.90;99.90;;;;;;10502503;28;20553;-77
2021/11/30 11:03:27;;;;;;;2.20;2.03;;;4.80;99.90;;;;;;10502314;28;20228;-79
2021/11/30 11:08:29;;;;;;;2.80;2.70;;;4.80;99.90;;;;;;10502272;28;20265;-78
2021/11/30 11:13:37;;;;;;;3.00;2.90;;;4.80;99.90;;;;;;10504149;28;20192;-78
2021/11/30 11:18:41;;;;;;;3.50;3.40;;;4.70;99.90;;;;;;10500285;28;20691;-79
2021/11/30 11:23:46;;;;;;;4.97;4.77;;;4.70;99.90;;;;;;10500015;28;20228;-78
2021/11/30 11:28:51;;;;;;;3.00;2.90;;;4.70;99.90;;;;;;10503814;28;20208;-79
2021/11/30 11:33:54;;;;;;;3.97;3.67;;;4.70;99.90;;;;;;10484397;28;20251;-79
2021/11/30 11:38:56;;;;;;;3.40;3.30;;;4.70;99.90;;;;;;10483640;28;20212;-79
2021/11/30 11:44:00;;;;;;;6.60;6.30;;;4.70;99.90;;;;;;10501493;28;20278;-78
2021/11/30 11:49:04;;;;;;;6.13;5.83;;;4.70;99.90;;;;;;10495256;28;20299;-79
2021/11/30 11:54:08;;;;;;;6.00;5.80;;;4.80;99.90;;;;;;10484683;28;20338;-78
2021/11/30 11:59:14;;;;;;;4.03;3.80;;;4.80;99.90;;;;;;10497179;28;20565;-78
2021/11/30 12:04:18;;;;;;;5.20;5.00;;;4.80;99.90;;;;;;10499994;28;20647;-79
2021/11/30 12:09:24;;;;;;;4.60;4.40;;;4.90;99.90;;;;;;10501303;28;20619;-79
2021/11/30 12:14:35;;;;;;;5.93;5.63;;;4.80;99.90;;;;;;10493149;28;20225;-79
2021/11/30 12:19:42;;;;;;;4.70;4.40;;;4.90;99.90;;;;;;10499642;28;20695;-78
2021/11/30 12:24:47;;;;;;;5.13;4.90;;;4.90;99.90;;;;;;10498159;28;20307;-78
2021/11/30 12:29:51;;;;;;;3.57;3.37;;;4.90;99.90;;;;;;10491514;28;20204;-78
2021/11/30 12:34:58;;;;;;;5.57;5.27;;;4.90;99.90;;;;;;10493327;28;20216;-78
2021/11/30 12:40:04;;;;;;;5.20;5.00;;;5.00;99.90;;;;;;10471771;28;20201;-77
2021/11/30 12:45:09;;;;;;;6.10;5.70;;;5.00;99.90;;;;;;10498496;28;20273;-77
2021/11/30 12:50:21;;;;;;;5.83;5.60;;;5.00;99.90;;;;;;10495537;28;20211;-78
2021/11/30 12:55:23;;;;;;;5.30;5.03;;;5.00;99.90;;;;;;10495301;28;20303;-77
2021/11/30 13:00:29;;;;;;;5.10;4.90;;;5.10;99.90;;;;;;10479027;28;20562;-78
2021/11/30 13:05:31;;;;;;;5.50;5.20;;;5.10;99.90;;;;;;10495916;28;20239;-77
2021/11/30 13:10:37;;;;;;;4.30;4.10;;;5.00;99.90;;;;;;10493903;28;20250;-77
2021/11/30 13:15:46;;;;;;;5.43;5.23;;;5.10;99.90;;;;;;10494455;28;20235;-78
2021/11/30 13:20:50;;;;;;;5.50;5.10;;;5.00;99.90;;;;;;10497512;28;20216;-78
2021/11/30 13:25:54;;;;;;;4.90;4.70;;;5.00;99.90;;;;;;10495328;28;20251;-78
2021/11/30 13:31:04;;;;;;;5.10;4.90;;;4.90;99.90;;;;;;10498028;28;20199;-78
2021/11/30 13:36:08;;;;;;;5.30;4.90;;;4.90;99.90;;;;;;10492055;28;20301;-78
2021/11/30 13:41:12;;;;;;;5.93;5.67;;;5.00;99.90;;;;;;10492101;28;20263;-78
2021/11/30 13:46:18;;;;;;;3.67;3.50;;;4.90;99.90;;;;;;10498684;28;20307;-77
2021/11/30 13:51:23;;;;;;;5.33;5.03;;;5.00;99.90;;;;;;10498126;28;20283;-78
2021/11/30 13:56:29;;;;;;;3.67;3.47;;;4.90;99.90;;;;;;10482920;28;20220;-78
2021/11/30 14:01:51;;;;;;;4.60;4.40;;;5.00;99.90;;;;;;10500004;28;20216;-77
2021/11/30 14:06:56;;;;;;;3.90;3.60;;;5.00;99.90;;;;;;10499150;28;20228;-78
2021/11/30 14:12:04;;;;;;;3.90;3.70;;;5.00;99.90;;;;;;10497328;28;20228;-77
2021/11/30 14:17:08;;;;;;;3.63;3.43;;;5.10;99.90;;;;;;10499376;28;20224;-77
2021/11/30 14:22:12;;;;;;;3.67;3.53;;;5.10;99.90;;;;;;10502885;28;20661;-78
2021/11/30 14:27:15;;;;;;;3.70;3.40;;;5.20;99.90;;;;;;10505344;28;20634;-78
2021/11/30 14:32:20;;;;;;;4.40;3.60;;;5.20;99.90;;;;;;10506332;28;20197;-78
2021/11/30 14:37:30;;;;;;;2.10;2.00;;;5.20;99.90;;;;;;10510622;23;20259;-80
2021/11/30 14:42:34;;;;;;;4.20;3.00;;;5.20;99.90;;;;;;10500488;28;20220;-79
2021/11/30 14:47:38;;;;;;;2.60;2.50;;;5.30;99.90;;;;;;10510638;28;20224;-80
2021/11/30 14:52:43;;;;;;;1.87;1.77;;;5.30;99.90;;;;;;10502301;28;20208;-81
2021/11/30 14:57:46;;;;;;;2.40;2.30;;;5.40;99.90;;;;;;10507897;28;20224;-82
2021/11/30 15:03:05;;;;;;;2.80;2.70;;;5.40;99.90;;;;;;10504808;28;20224;-82
2021/11/30 15:08:35;;;;;;;1.80;1.70;;;5.50;99.90;;;;;;10509889;28;20231;-80
2021/11/30 15:13:50;;;;;;;2.30;2.20;;;5.60;99.90;;;;;;10501507;28;20283;-82
2021/11/30 15:19:16;;;;;;;1.80;1.70;;;5.50;99.90;;;;;;10500803;28;20324;-81
2021/11/30 15:24:20;;;;;;;1.70;1.70;;;5.60;99.90;;;;;;10500977;28;20228;-83
2021/11/30 15:29:23;;;;;;;1.50;1.40;;;5.70;99.90;;;;;;10504112;28;20204;-80
2021/11/30 15:34:39;;;;;;;1.67;1.67;;;5.70;99.90;;;;;;10481765;28;20767;-80
2021/11/30 15:39:41;;;;;;;1.97;1.87;;;5.60;99.90;;;;;;10498208;28;20616;-81
2021/11/30 15:44:44;;;;;;;1.27;1.17;;;5.60;99.90;;;;;;10482840;28;20259;-80
2021/11/30 15:49:48;;;;;;;1.17;1.13;;;5.60;99.90;;;;;;10499028;28;20575;-80
2021/11/30 15:54:50;;;;;;;2.70;1.97;;;5.60;99.90;;;;;;10498349;28;20273;-81
2021/11/30 15:59:54;;;;;;;1.87;1.77;;;5.60;99.90;;;;;;10498834;28;20616;-82
2021/11/30 16:05:00;;;;;;;2.00;1.90;;;5.60;99.90;;;;;;10480630;28;20232;-81
2021/11/30 16:10:04;;;;;;;2.30;2.20;;;5.70;99.90;;;;;;10497652;28;20192;-81
2021/11/30 16:15:07;;;;;;;1.97;1.87;;;5.60;99.90;;;;;;10480371;28;20220;-81
2021/11/30 16:20:11;;;;;;;1.80;1.70;;;5.50;99.90;;;;;;10489208;28;20348;-81
2021/11/30 16:25:13;;;;;;;2.67;2.47;;;5.50;99.90;;;;;;10473662;28;20315;-81
2021/11/30 16:30:16;;;;;;;4.90;4.60;;;5.50;99.90;;;;;;10498023;28;20197;-80
2021/11/30 16:35:19;;;;;;;5.40;5.00;;;5.50;99.90;;;;;;10497960;28;20266;-84
2021/11/30 16:40:22;;;;;;;3.60;3.40;;;5.50;99.90;;;;;;10506980;28;20581;-80
2021/11/30 16:45:24;;;;;;;4.53;4.33;;;5.50;99.90;;;;;;10497200;28;20485;-80
2021/11/30 16:50:27;;;;;;;5.07;4.67;;;5.50;99.90;;;;;;10478856;28;20196;-81
2021/11/30 16:55:34;;;;;;;5.93;5.63;;;5.40;99.90;;;;;;10484488;28;20217;-79
2021/11/30 17:00:39;;;;;;;6.40;6.10;;;5.40;99.90;;;;;;10486519;28;20204;-82
2021/11/30 17:05:43;;;;;;;8.77;7.40;;;5.30;99.90;;;;;;10480813;28;20232;-77
2021/11/30 17:10:45;;;;;;;7.30;7.00;;;5.40;99.90;;;;;;10501066;28;20204;-81
2021/11/30 17:15:47;;;;;;;7.90;7.50;;;5.30;99.90;;;;;;10500268;28;20247;-80
2021/11/30 17:20:51;;;;;;;6.13;5.83;;;5.30;99.90;;;;;;10498152;28;20205;-78
2021/11/30 17:25:55;;;;;;;6.80;6.50;;;5.40;99.90;;;;;;10491123;28;20229;-79
2021/11/30 17:31:06;;;;;;;8.57;8.27;;;5.40;99.90;;;;;;10497964;28;20203;-78
2021/11/30 17:36:10;;;;;;;7.50;7.20;;;5.40;99.90;;;;;;10482861;28;20225;-78
2021/11/30 17:41:12;;;;;;;5.77;5.57;;;5.40;99.90;;;;;;10478766;28;20735;-79
2021/11/30 17:46:14;;;;;;;6.90;6.60;;;5.40;99.90;;;;;;10478299;28;20339;-78
2021/11/30 17:51:18;;;;;;;7.67;7.27;;;5.50;99.90;;;;;;10482762;28;20261;-80
2021/11/30 17:56:20;;;;;;;6.33;6.10;;;5.50;99.90;;;;;;10480396;28;20223;-78
2021/11/30 18:01:22;;;;;;;6.17;5.90;;;5.50;99.90;;;;;;10503373;28;20722;-78
2021/11/30 18:06:26;;;;;;;6.73;6.53;;;5.50;99.90;;;;;;10489290;28;20300;-78
2021/11/30 18:11:28;;;;;;;4.60;4.40;;;5.50;99.90;;;;;;10502807;28;20264;-79
2021/11/30 18:16:31;;;;;;;4.70;4.50;;;5.50;99.90;;;;;;10503526;28;20295;-84
2021/11/30 18:21:34;;;;;;;6.00;5.80;;;5.60;99.90;;;;;;10517535;28;20214;-82
2021/11/30 18:26:37;;;;;;;4.90;4.70;;;5.60;99.90;;;;;;10503992;28;20800;-80
2021/11/30 18:31:39;;;;;;;6.10;5.90;;;5.60;99.90;;;;;;10488559;28;20200;-83
2021/11/30 18:36:42;;;;;;;6.80;6.40;;;5.70;99.90;;;;;;10492733;28;20243;-81
2021/11/30 18:41:45;;;;;;;4.40;4.17;;;5.70;99.90;;;;;;10504536;28;20231;-82
2021/11/30 18:46:47;;;;;;;7.83;7.33;;;5.70;99.90;;;;;;10489596;28;20238;-83
2021/11/30 18:51:51;;;;;;;6.83;6.53;;;5.70;99.90;;;;;;10494191;28;20562;-84
2021/11/30 18:56:54;;;;;;;9.60;9.03;;;5.70;99.90;;;;;;10497265;28;20565;-81
2021/11/30 19:01:59;;;;;;;5.37;5.17;;;5.70;99.90;;;;;;10502667;28;20224;-84
2021/11/30 19:07:02;;;;;;;4.83;4.63;;;5.70;99.90;;;;;;10500498;28;20232;-81
2021/11/30 19:12:35;;;;;;;5.60;5.40;;;5.70;99.90;;;;;;10503993;28;20288;-83
2021/11/30 19:18:38;;;;;;;5.97;5.77;;;5.70;99.90;;;;;;10612670;22;20312;-82
2021/11/30 19:23:44;;;;;;;5.10;4.90;;;5.80;99.90;;;;;;10524445;28;20215;-84
2021/11/30 19:28:58;;;;;;;3.97;3.77;;;5.80;99.90;;;;;;10518638;28;20204;-83
2021/11/30 19:34:04;;;;;;;5.40;5.20;;;5.80;99.90;;;;;;10532671;28;20217;-85
2021/11/30 19:39:09;;;;;;;5.57;5.10;;;5.80;99.90;;;;;;10524248;28;20233;-80
2021/11/30 19:44:11;;;;;;;4.83;4.63;;;5.90;99.90;;;;;;10515797;28;20220;-82
2021/11/30 19:49:16;;;;;;;4.40;4.30;;;5.90;99.90;;;;;;10503880;28;20196;-83
2021/11/30 19:54:20;;;;;;;3.60;3.40;;;6.00;99.90;;;;;;10527435;28;20207;-81
2021/11/30 19:59:22;;;;;;;4.00;3.80;;;6.00;99.90;;;;;;10538564;28;20277;-84
2021/11/30 20:09:46;;;;;;;3.80;3.60;;;6.10;99.90;;;;;;10513585;28;20222;-84
2021/11/30 20:14:48;;;;;;;3.50;3.40;;;6.10;99.90;;;;;;10549907;22;20642;-85
2021/11/30 20:19:50;;;;;;;5.00;3.43;;;6.10;99.90;;;;;;10476320;28;20683;-86
2021/11/30 20:24:54;;;;;;;3.10;3.00;;;6.10;99.90;;;;;;10507344;28;20311;-81
2021/11/30 20:41:14;;;;;;;3.30;3.20;;;6.20;99.90;;;;;;10478699;28;20211;-84
2021/11/30 20:46:18;;;;;;;3.37;3.17;;;6.20;99.90;;;;;;10464901;28;20239;-84
2021/11/30 20:51:20;;;;;;;2.93;2.83;;;6.30;99.90;;;;;;10457807;28;20212;-83
2021/11/30 20:56:24;;;;;;;3.10;3.00;;;6.30;99.90;;;;;;10438341;28;20258;-84
2021/11/30 21:01:45;;;;;;;3.17;3.07;;;6.30;99.90;;;;;;10440973;28;20213;-83
2021/11/30 21:06:48;;;;;;;2.67;2.57;;;6.30;99.90;;;;;;10422822;28;20222;-82
2021/11/30 21:11:51;;;;;;;2.70;2.67;;;6.40;99.90;;;;;;10416476;28;20625;-82
2021/11/30 21:16:53;;;;;;;2.80;2.70;;;6.40;99.90;;;;;;10426515;28;20245;-84
2021/11/30 21:21:55;;;;;;;2.60;2.50;;;6.40;99.90;;;;;;10449986;28;20289;-83
2021/11/30 21:26:59;;;;;;;2.70;2.60;;;6.50;99.90;;;;;;10420329;28;20229;-83
2021/11/30 21:32:01;;;;;;;2.87;2.77;;;6.40;99.90;;;;;;10412749;28;20260;-83
2021/11/30 21:37:04;;;;;;;3.80;3.60;;;6.50;99.90;;;;;;10436053;28;20293;-83
2021/11/30 21:42:08;;;;;;;3.17;3.07;;;6.50;99.90;;;;;;10431690;28;20249;-83
2021/11/30 21:47:10;;;;;;;3.47;3.27;;;6.50;99.90;;;;;;10438372;28;20642;-84
2021/11/30 21:52:12;;;;;;;3.57;3.37;;;6.50;99.90;;;;;;10457254;28;20213;-83
2021/11/30 21:57:16;;;;;;;3.00;2.90;;;6.60;99.90;;;;;;10397514;28;20232;-84
2021/11/30 22:02:18;;;;;;;3.63;3.43;;;6.60;99.90;;;;;;10417152;28;20308;-84
2021/11/30 22:07:21;;;;;;;3.10;3.00;;;6.60;99.90;;;;;;10449089;28;20300;-84
2021/11/30 22:12:24;;;;;;;3.43;3.33;;;6.60;99.90;;;;;;10431092;28;20212;-84
2021/11/30 22:17:26;;;;;;;3.77;3.60;;;6.60;99.90;;;;;;10415429;28;20224;-82
2021/11/30 22:22:29;;;;;;;3.87;3.67;;;6.60;99.90;;;;;;10416452;28;20344;-83
2021/11/30 22:27:32;;;;;;;4.53;4.23;;;6.60;99.90;;;;;;10407031;28;20213;-84
2021/11/30 22:32:34;;;;;;;2.70;2.60;;;6.60;99.90;;;;;;10426174;28;20196;-83
2021/11/30 22:37:36;;;;;;;2.80;2.70;;;6.60;99.90;;;;;;10422976;28;20230;-84
2021/11/30 22:42:40;;;;;;;3.30;3.10;;;6.60;99.90;;;;;;10424473;28;20312;-84
2021/11/30 22:47:42;;;;;;;2.70;2.60;;;6.70;99.90;;;;;;10422365;28;20316;-83
2021/11/30 22:52:44;;;;;;;3.00;2.90;;;6.70;99.90;;;;;;10427461;28;20277;-84
2021/11/30 22:57:48;;;;;;;2.90;2.80;;;6.70;99.90;;;;;;10434757;28;20270;-83
2021/11/30 23:02:50;;;;;;;2.63;2.53;;;6.80;99.90;;;;;;10431559;28;20236;-84
2021/11/30 23:07:53;;;;;;;2.77;2.67;;;6.70;99.90;;;;;;10429571;28;20214;-83
2021/11/30 23:12:56;;;;;;;2.80;2.70;;;6.70;99.90;;;;;;10425003;28;20202;-82
2021/11/30 23:18:00;;;;;;;3.00;2.90;;;6.70;99.90;;;;;;10431818;28;20266;-83
2021/11/30 23:23:07;;;;;;;3.10;3.00;;;6.80;99.90;;;;;;10430845;28;20211;-83
2021/11/30 23:28:16;;;;;;;3.13;3.03;;;6.80;99.90;;;;;;10413915;28;20225;-82
2021/11/30 23:33:20;;;;;;;3.40;3.10;;;6.80;99.90;;;;;;10406304;28;20657;-83
2021/11/30 23:38:23;;;;;;;2.90;2.80;;;6.80;99.90;;;;;;10429798;28;20225;-83
2021/11/30 23:43:27;;;;;;;3.07;2.87;;;6.80;99.90;;;;;;10453837;28;20220;-80
2021/11/30 23:48:29;;;;;;;3.40;3.30;;;6.80;99.90;;;;;;10444398;28;20228;-81
2021/11/30 23:53:32;;;;;;;2.90;2.80;;;6.80;99.90;;;;;;10457545;28;20280;-82
2021/11/30 23:58:35;;;;;;;3.50;3.30;;;6.80;99.90;;;;;;10439458;28;20271;-81
